Archival Weather

Najaf

Najaf, Iraq (ORNI)

Report from: Tuesday, August 16, 2022 4:00 AM UTC
Current time: Tuesday, July 16, 2024 9:56 AM UTC

Current weather – Weather history – Daily summaries
Weather forecast

Temperature32.0°C (89.6°F)
Heat index30.1°C (86.2°F)
Dew point8.0°C (46.4°F)
Winds 12 kts (6.2 m/s, 13.8 mph) Northwest (310°)
Visibility5 mi. (8 km)
Clouds Few clouds 7,000 ft. (2,134 m)
Altimeter29.62 in.Hg (1003 mB)
Relative humidity23 %
Density altitude2,440 ft. (744 m)
Flight conditions Marginal Visual Meteorological Conditions
Raw dataORNI 160400Z 31012KT 8000 FEW070 32/08 Q1003
An error has occurred. This application may no longer respond until reloaded. Reload 🗙